Time;durP1;ratioP1;P1;durP2;ratioP2;P2;SDS_P1;SDS_P2;PMS_P1;PMS_P2;Temp;Humidity;BMP_temperature;BMP_pressure;BME280_temperature;BME280_humidity;BME280_pressure;Samples;Min_cycle;Max_cycle;Signal;HPM_P1;HPM_P2
2021/10/24 00:07:43;;;;;;;26.40;18.38;;;;;;;10.70;90.61;99625.84;4956218;28;20057;-57
2021/10/24 00:10:09;;;;;;;28.80;18.85;;;;;;;10.94;90.13;99662.09;5021152;28;20026;-57
2021/10/24 00:12:36;;;;;;;29.90;19.30;;;;;;;11.02;89.83;99671.91;5020738;28;20030;-57
2021/10/24 00:15:02;;;;;;;27.88;18.67;;;;;;;10.80;89.74;99638.13;5024958;28;20044;-57
2021/10/24 00:17:27;;;;;;;26.38;17.98;;;;;;;10.78;88.72;99631.25;5022737;28;20029;-57
2021/10/24 00:19:53;;;;;;;26.52;18.42;;;;;;;10.99;89.25;99674.75;5017762;28;20044;-57
2021/10/24 00:22:18;;;;;;;28.83;18.10;;;;;;;10.99;88.87;99677.38;4972336;28;20033;-57
2021/10/24 00:24:44;;;;;;;31.23;19.45;;;;;;;11.06;89.28;99675.94;5019521;28;20021;-58
2021/10/24 00:27:09;;;;;;;27.55;17.52;;;;;;;11.05;88.82;99673.44;5020287;28;20037;-57
2021/10/24 00:29:35;;;;;;;28.02;18.40;;;;;;;10.71;88.36;99626.66;5023208;28;20534;-57
2021/10/24 00:32:00;;;;;;;26.10;18.15;;;;;;;11.03;88.68;99686.56;5018679;28;21152;-57
2021/10/24 00:34:26;;;;;;;26.92;17.00;;;;;;;11.02;88.54;99684.91;5030617;28;20421;-57
2021/10/24 00:36:51;;;;;;;26.23;17.33;;;;;;;10.76;87.95;99629.72;4973098;28;20044;-57
2021/10/24 00:39:16;;;;;;;24.98;17.85;;;;;;;10.96;87.77;99668.00;4985742;28;20527;-57
2021/10/24 00:41:43;;;;;;;27.08;17.77;;;;;;;11.02;87.78;99686.69;5018200;28;20034;-57
2021/10/24 00:44:38;;;;;;;24.83;15.98;;;;;;;11.08;87.04;99681.00;5037546;28;20122;-57
2021/10/24 00:47:05;;;;;;;26.88;18.60;;;;;;;11.09;87.11;99683.47;5015441;28;20049;-57
2021/10/24 00:49:33;;;;;;;26.92;17.65;;;;;;;11.10;86.67;99684.31;5020459;28;20028;-57
2021/10/24 00:51:59;;;;;;;25.80;16.65;;;;;;;11.11;86.78;99680.75;5018062;28;20110;-57
2021/10/24 00:54:27;;;;;;;23.30;16.23;;;;;;;11.09;86.32;99682.66;4966106;28;20058;-58
2021/10/24 00:56:56;;;;;;;24.02;16.83;;;;;;;11.05;86.58;99674.25;5028496;28;20036;-56
2021/10/24 00:59:25;;;;;;;25.88;16.63;;;;;;;11.09;86.43;99683.47;5022718;28;20060;-57
2021/10/24 01:01:51;;;;;;;25.70;15.77;;;;;;;11.05;86.61;99674.25;5024908;28;20030;-57
2021/10/24 01:04:16;;;;;;;27.73;16.58;;;;;;;11.03;86.59;99675.34;5034137;28;20033;-57
2021/10/24 01:06:43;;;;;;;26.30;17.05;;;;;;;11.08;86.67;99678.38;5031159;28;20024;-57
2021/10/24 01:09:21;;;;;;;25.48;16.45;;;;;;;11.01;86.73;99678.06;5017692;28;21415;-57
2021/10/24 01:11:48;;;;;;;25.60;16.67;;;;;;;11.02;87.29;99689.28;4954849;28;20029;-58
2021/10/24 01:14:13;;;;;;;25.45;16.25;;;;;;;10.90;87.33;99668.50;5011210;28;20017;-58
2021/10/24 01:16:41;;;;;;;26.70;17.55;;;;;;;11.04;86.93;99679.59;5031756;28;20040;-57
2021/10/24 01:19:08;;;;;;;26.08;16.65;;;;;;;10.78;86.13;99630.44;5019096;28;20056;-57
2021/10/24 01:21:34;;;;;;;24.67;16.27;;;;;;;10.87;86.48;99645.31;5022560;28;20100;-57
2021/10/24 01:24:00;;;;;;;25.92;16.58;;;;;;;11.01;86.25;99680.66;5023632;28;20044;-57
2021/10/24 01:26:26;;;;;;;25.92;16.67;;;;;;;10.79;85.91;99626.91;4965431;28;20040;-57
2021/10/24 01:28:52;;;;;;;25.40;16.45;;;;;;;11.03;86.24;99675.34;5025572;28;20575;-57
2021/10/24 01:31:46;;;;;;;23.25;15.68;;;;;;;11.02;86.51;99666.69;5024587;28;20035;-58
2021/10/24 01:34:11;;;;;;;25.30;15.68;;;;;;;11.06;84.36;99667.28;5011979;28;20029;-57
2021/10/24 01:36:36;;;;;;;24.42;15.65;;;;;;;11.06;85.11;99662.06;5022870;28;20033;-57
2021/10/24 01:39:03;;;;;;;25.00;15.63;;;;;;;11.08;86.24;99671.44;5025099;28;20123;-57
2021/10/24 01:41:28;;;;;;;26.90;16.77;;;;;;;11.03;87.57;99678.78;4952873;28;20041;-57
2021/10/24 01:43:54;;;;;;;23.27;15.88;;;;;;;10.90;87.55;99665.91;5022201;28;20095;-57
2021/10/24 01:46:20;;;;;;;26.27;15.48;;;;;;;10.89;88.09;99674.63;5021821;28;20140;-57
2021/10/24 01:48:46;;;;;;;24.42;16.08;;;;;;;10.58;87.17;99627.63;5016063;28;20471;-57
2021/10/24 01:51:12;;;;;;;24.70;15.55;;;;;;;10.82;86.45;99659.63;5023786;28;20555;-57
2021/10/24 01:53:40;;;;;;;23.77;15.70;;;;;;;10.55;86.34;99617.47;5024058;28;20030;-58
2021/10/24 01:56:06;;;;;;;23.25;14.68;;;;;;;10.81;86.31;99668.41;5020686;28;20051;-58
2021/10/24 01:58:33;;;;;;;23.23;14.30;;;;;;;10.87;85.85;99665.31;4965058;28;20055;-58
2021/10/24 02:00:58;;;;;;;23.73;15.32;;;;;;;10.67;85.65;99633.06;5021331;28;20115;-57
2021/10/24 02:03:24;;;;;;;20.70;14.55;;;;;;;10.87;85.44;99652.31;5029964;28;20090;-57
2021/10/24 02:05:50;;;;;;;18.73;13.00;;;;;;;10.70;84.99;99614.63;5022011;28;20137;-57
2021/10/24 02:08:15;;;;;;;20.77;13.23;;;;;;;10.96;84.68;99659.38;5023419;28;20037;-57
2021/10/24 02:10:41;;;;;;;19.05;13.15;;;;;;;10.88;83.61;99657.41;5019151;28;20056;-57
2021/10/24 02:13:08;;;;;;;19.75;13.10;;;;;;;10.49;83.63;99591.09;5028691;28;20266;-56
2021/10/24 02:15:34;;;;;;;20.77;13.98;;;;;;;10.93;84.16;99650.06;5035643;28;20110;-57
2021/10/24 02:18:00;;;;;;;22.35;13.93;;;;;;;10.96;84.33;99646.38;5016737;28;20041;-57
2021/10/24 02:20:26;;;;;;;22.48;13.63;;;;;;;10.73;83.51;99607.41;5031304;28;20476;-57
2021/10/24 02:22:52;;;;;;;21.38;14.15;;;;;;;10.77;83.05;99606.19;5027821;28;20033;-57
2021/10/24 02:25:17;;;;;;;20.67;13.13;;;;;;;10.95;83.36;99648.16;5026925;28;20432;-57
2021/10/24 02:27:43;;;;;;;19.02;12.95;;;;;;;11.06;82.53;99662.06;5022673;28;20033;-58
2021/10/24 02:30:10;;;;;;;20.98;13.05;;;;;;;11.06;83.35;99670.72;5027470;28;20028;-57
2021/10/24 02:32:36;;;;;;;21.33;13.32;;;;;;;11.07;84.09;99679.34;5030864;28;20041;-57
2021/10/24 02:35:03;;;;;;;19.80;12.60;;;;;;;11.03;85.03;99670.16;5024924;28;20056;-58
2021/10/24 02:37:28;;;;;;;20.73;13.18;;;;;;;11.04;85.00;99671.78;5021518;28;20032;-57
2021/10/24 02:39:54;;;;;;;21.05;12.82;;;;;;;11.03;84.99;99675.34;5022747;28;20030;-58
2021/10/24 02:42:19;;;;;;;17.42;12.43;;;;;;;11.14;85.40;99673.53;5024721;28;20033;-57
2021/10/24 02:44:44;;;;;;;18.02;12.55;;;;;;;11.15;85.47;99670.00;5020533;28;20048;-57
2021/10/24 02:47:10;;;;;;;20.60;12.68;;;;;;;11.19;85.19;99669.72;5028318;28;20107;-57
2021/10/24 02:49:35;;;;;;;18.80;13.25;;;;;;;11.13;85.46;99663.25;5017667;28;20099;-57
2021/10/24 02:52:01;;;;;;;19.80;13.05;;;;;;;10.78;85.19;99615.66;5032951;28;20040;-54
2021/10/24 02:54:27;;;;;;;18.77;12.77;;;;;;;10.89;85.42;99621.78;5028530;28;20037;-57
2021/10/24 02:56:53;;;;;;;17.85;11.48;;;;;;;11.09;84.95;99660.06;4998556;28;20053;-57
2021/10/24 02:59:18;;;;;;;19.60;12.38;;;;;;;11.14;85.09;99659.69;5020013;28;20108;-57
2021/10/24 03:01:44;;;;;;;19.15;12.18;;;;;;;11.20;83.64;99671.41;5024976;28;20635;-57
2021/10/24 03:04:12;;;;;;;17.40;12.10;;;;;;;11.03;84.39;99657.13;5022847;28;20782;-57
2021/10/24 03:06:38;;;;;;;16.05;11.30;;;;;;;10.84;84.42;99629.97;5001921;28;20033;-57
2021/10/24 03:09:04;;;;;;;18.00;11.82;;;;;;;11.16;83.13;99666.44;5022501;28;20041;-57
2021/10/24 03:11:30;;;;;;;18.48;12.32;;;;;;;11.18;82.97;99666.31;5026010;28;20040;-57
2021/10/24 03:13:55;;;;;;;17.00;11.63;;;;;;;11.04;83.74;99656.97;5027825;28;20021;-57
2021/10/24 03:16:21;;;;;;;17.77;12.20;;;;;;;11.07;84.24;99674.16;5026696;28;20029;-57
2021/10/24 03:18:46;;;;;;;18.38;11.82;;;;;;;11.04;84.59;99677.81;5026015;28;20030;-57
2021/10/24 03:21:11;;;;;;;18.73;11.88;;;;;;;11.01;84.76;99674.66;5017458;28;20038;-57
2021/10/24 03:23:37;;;;;;;18.85;12.18;;;;;;;10.95;84.34;99673.31;5022131;28;20025;-57
2021/10/24 03:26:02;;;;;;;16.38;11.75;;;;;;;10.93;84.27;99686.47;5027568;28;20044;-57
2021/10/24 03:28:28;;;;;;;18.05;11.90;;;;;;;10.88;84.93;99679.97;5025814;28;20033;-57
2021/10/24 03:30:55;;;;;;;20.58;11.77;;;;;;;10.53;85.92;99641.94;5015646;28;20092;-58
2021/10/24 03:33:20;;;;;;;18.48;12.02;;;;;;;10.76;85.48;99668.75;5021126;28;20116;-58
2021/10/24 03:35:46;;;;;;;17.63;12.20;;;;;;;10.84;85.35;99687.22;5026571;28;20767;-57
2021/10/24 03:38:11;;;;;;;17.75;12.27;;;;;;;10.81;86.04;99684.84;5025239;28;20633;-58
2021/10/24 03:40:37;;;;;;;17.05;11.95;;;;;;;10.84;86.00;99686.34;5020900;28;20029;-58
2021/10/24 03:43:02;;;;;;;19.17;12.13;;;;;;;10.69;85.29;99637.19;5024437;28;20387;-57
2021/10/24 03:45:28;;;;;;;16.30;11.45;;;;;;;10.94;85.54;99684.69;5023827;28;20033;-58
2021/10/24 03:47:54;;;;;;;18.20;12.27;;;;;;;10.96;85.27;99683.63;5022368;28;20045;-57
2021/10/24 03:50:19;;;;;;;19.20;11.98;;;;;;;10.99;85.41;99689.53;5020712;28;20025;-57
2021/10/24 03:52:45;;;;;;;16.38;11.57;;;;;;;11.04;84.96;99684.78;5011890;28;20055;-57
2021/10/24 03:55:12;;;;;;;17.85;11.65;;;;;;;11.02;85.30;99692.72;5032992;28;20033;-58
2021/10/24 03:57:41;;;;;;;19.17;11.52;;;;;;;10.91;85.78;99680.53;5009255;28;20025;-57
2021/10/24 04:00:11;;;;;;;18.48;12.32;;;;;;;11.05;86.59;99689.06;5022290;28;20191;-57
2021/10/24 04:02:55;;;;;;;;;;;;;;;11.12;86.42;99693.66;5025161;28;20034;-58
2021/10/24 04:05:21;;;;;;;17.42;10.50;;;;;;;10.98;86.30;99662.69;5011761;28;20424;-57
2021/10/24 04:07:50;;;;;;;16.70;12.00;;;;;;;11.19;85.20;99687.94;5000059;28;20029;-57
2021/10/24 04:10:17;;;;;;;19.20;11.68;;;;;;;11.18;84.75;99694.94;5029842;28;20036;-57
2021/10/24 04:12:43;;;;;;;19.50;12.18;;;;;;;11.21;84.71;99699.91;5020712;28;20025;-58
2021/10/24 04:15:08;;;;;;;17.83;11.65;;;;;;;11.07;84.74;99685.38;5038784;28;20510;-57
2021/10/24 04:17:34;;;;;;;17.10;11.75;;;;;;;11.08;84.97;99694.00;5030574;28;20025;-58
2021/10/24 04:19:59;;;;;;;17.25;12.13;;;;;;;11.06;84.92;99698.50;5021759;28;20033;-58
2021/10/24 04:22:25;;;;;;;17.00;12.05;;;;;;;11.00;85.28;99697.22;5023125;28;20025;-57
2021/10/24 04:24:50;;;;;;;18.55;12.25;;;;;;;10.92;85.46;99700.44;5029418;28;20105;-57
2021/10/24 04:27:15;;;;;;;18.02;12.18;;;;;;;10.95;85.54;99687.19;5023464;28;20412;-58
2021/10/24 04:29:41;;;;;;;19.30;11.90;;;;;;;10.96;85.77;99691.44;5009664;28;20018;-58
2021/10/24 04:32:06;;;;;;;20.40;12.30;;;;;;;11.01;85.06;99685.88;5030792;28;20036;-57
2021/10/24 04:34:32;;;;;;;18.73;12.82;;;;;;;10.86;85.35;99676.66;5028045;28;20020;-57
2021/10/24 04:36:57;;;;;;;19.20;12.05;;;;;;;11.02;85.09;99679.69;5023073;28;20030;-57
2021/10/24 04:39:23;;;;;;;17.83;12.40;;;;;;;10.68;85.84;99640.75;5025676;28;20032;-57
2021/10/24 04:41:48;;;;;;;18.92;12.70;;;;;;;10.91;86.12;99679.72;5028314;28;20068;-57
2021/10/24 04:44:13;;;;;;;20.05;12.93;;;;;;;10.65;87.29;99651.38;5018698;28;20048;-57
2021/10/24 04:46:39;;;;;;;18.85;12.40;;;;;;;10.89;87.35;99685.06;5026461;28;20048;-58
2021/10/24 04:49:04;;;;;;;18.90;12.48;;;;;;;10.71;87.79;99669.09;5024727;28;20025;-57
2021/10/24 04:51:30;;;;;;;20.50;12.57;;;;;;;10.53;88.57;99647.97;5024299;28;20049;-57
2021/10/24 04:53:55;;;;;;;21.42;13.13;;;;;;;10.86;88.45;99698.31;5032258;28;20045;-57
2021/10/24 04:56:20;;;;;;;19.85;12.80;;;;;;;10.82;88.99;99698.66;5035159;28;20024;-57
2021/10/24 04:58:46;;;;;;;18.48;12.60;;;;;;;10.83;89.30;99693.34;5028116;28;20735;-57
2021/10/24 05:01:11;;;;;;;20.13;14.00;;;;;;;10.91;88.89;99687.53;5020839;28;20052;-57
2021/10/24 05:03:38;;;;;;;19.38;12.68;;;;;;;10.89;89.27;99694.63;5026303;28;20066;-57
2021/10/24 05:06:03;;;;;;;18.10;12.02;;;;;;;10.69;89.17;99655.38;5018051;28;20029;-57
2021/10/24 05:08:29;;;;;;;18.10;12.43;;;;;;;10.88;89.58;99686.00;5023087;28;20526;-57
2021/10/24 05:10:54;;;;;;;17.63;10.82;;;;;;;10.93;88.59;99694.28;5009471;28;20037;-57
2021/10/24 05:13:19;;;;;;;17.75;11.75;;;;;;;10.53;88.70;99639.31;5015622;28;20069;-57
2021/10/24 05:15:45;;;;;;;17.85;12.32;;;;;;;10.85;88.58;99680.22;5029645;28;20030;-56
2021/10/24 05:18:10;;;;;;;15.85;11.30;;;;;;;10.80;88.37;99683.16;5009572;28;20452;-57
2021/10/24 05:20:36;;;;;;;19.50;11.77;;;;;;;10.77;88.40;99693.84;5020935;28;20037;-57
2021/10/24 05:23:02;;;;;;;18.80;11.57;;;;;;;10.82;87.10;99680.44;5025002;28;20664;-57
2021/10/24 05:25:27;;;;;;;18.33;11.70;;;;;;;10.75;86.55;99696.56;5014725;28;20131;-57
2021/10/24 05:27:56;;;;;;;17.23;11.13;;;;;;;10.76;86.14;99687.78;5015419;28;20038;-57
2021/10/24 05:30:22;;;;;;;15.43;10.65;;;;;;;10.74;85.78;99694.88;5015927;28;20146;-57
2021/10/24 05:32:48;;;;;;;15.40;10.20;;;;;;;10.74;85.52;99699.28;5015791;28;20025;-57
2021/10/24 05:35:13;;;;;;;17.40;10.48;;;;;;;10.72;83.45;99695.97;5023447;28;20087;-58
2021/10/24 05:37:39;;;;;;;14.35;9.27;;;;;;;10.75;82.67;99698.31;5011090;28;20468;-57
2021/10/24 05:40:05;;;;;;;16.73;10.50;;;;;;;10.73;82.44;99693.25;5022077;28;20029;-56
2021/10/24 05:42:31;;;;;;;17.13;9.63;;;;;;;10.67;82.95;99690.28;5015898;28;20037;-57
2021/10/24 05:44:57;;;;;;;14.55;9.68;;;;;;;10.61;82.61;99664.75;5019182;28;20036;-57
2021/10/24 05:47:22;;;;;;;13.13;8.52;;;;;;;10.71;82.07;99691.69;5014624;28;20037;-57
2021/10/24 05:49:49;;;;;;;15.20;9.73;;;;;;;10.33;82.49;99635.66;5018016;28;20043;-57
2021/10/24 05:52:15;;;;;;;14.90;9.70;;;;;;;10.42;83.16;99647.94;5014124;28;20377;-59
2021/10/24 05:54:41;;;;;;;17.25;10.32;;;;;;;10.53;83.56;99676.59;5017795;28;20036;-57
2021/10/24 05:57:06;;;;;;;17.10;10.45;;;;;;;10.35;83.42;99639.00;5018618;28;20061;-57
2021/10/24 05:59:33;;;;;;;17.17;9.52;;;;;;;10.63;83.56;99687.09;5019576;28;20021;-57
2021/10/24 06:01:58;;;;;;;15.57;10.23;;;;;;;10.72;82.93;99682.94;5019338;28;20563;-57
2021/10/24 06:04:24;;;;;;;15.15;10.07;;;;;;;10.61;82.75;99677.75;5017237;28;20028;-57
2021/10/24 06:06:49;;;;;;;16.38;9.90;;;;;;;10.69;83.55;99686.59;5023643;28;20693;-58
2021/10/24 06:09:15;;;;;;;18.25;10.38;;;;;;;10.69;82.99;99677.97;5014290;28;20029;-57
2021/10/24 06:11:54;;;;;;;18.77;10.05;;;;;;;10.66;82.81;99683.41;5021680;28;20041;-57
2021/10/24 06:14:19;;;;;;;14.00;9.70;;;;;;;10.73;83.79;99689.78;5019623;28;20507;-57
2021/10/24 06:16:45;;;;;;;14.20;9.50;;;;;;;10.40;82.99;99626.44;4999360;28;20057;-57
2021/10/24 06:19:10;;;;;;;15.90;9.52;;;;;;;10.70;82.78;99677.03;5017879;28;20567;-57
2021/10/24 06:21:36;;;;;;;15.50;10.02;;;;;;;10.72;82.93;99696.78;5004753;28;20038;-57
2021/10/24 06:24:01;;;;;;;16.23;9.82;;;;;;;10.51;81.42;99646.41;5013555;28;20057;-57
2021/10/24 06:26:27;;;;;;;12.20;8.65;;;;;;;10.61;80.06;99672.56;4987287;28;20120;-57
2021/10/24 06:28:52;;;;;;;13.85;9.07;;;;;;;10.81;79.86;99691.81;5018731;28;20025;-58
2021/10/24 06:31:18;;;;;;;14.73;8.88;;;;;;;10.64;79.00;99659.31;5025726;28;20060;-58
2021/10/24 06:33:44;;;;;;;15.15;9.30;;;;;;;10.92;78.98;99707.41;5012621;28;20108;-58
2021/10/24 06:36:09;;;;;;;15.43;9.60;;;;;;;10.90;79.76;99707.53;5029089;28;20106;-58
2021/10/24 06:38:35;;;;;;;13.48;9.30;;;;;;;10.91;80.11;99706.56;5011964;28;20110;-58
2021/10/24 06:41:00;;;;;;;13.75;8.98;;;;;;;11.00;80.01;99710.22;5008105;28;20045;-58
2021/10/24 06:43:27;;;;;;;15.32;9.27;;;;;;;10.85;80.14;99695.84;5021628;28;20025;-58
2021/10/24 06:45:52;;;;;;;13.15;9.13;;;;;;;10.67;80.27;99659.06;5010383;28;20084;-58
2021/10/24 06:48:18;;;;;;;14.65;8.80;;;;;;;11.04;80.60;99708.22;5012605;28;20025;-58
2021/10/24 06:50:43;;;;;;;15.07;9.82;;;;;;;11.00;80.47;99710.22;5016342;28;20029;-57
2021/10/24 06:53:08;;;;;;;14.77;9.18;;;;;;;11.05;80.30;99713.31;5022190;28;20025;-58
2021/10/24 06:55:34;;;;;;;14.27;9.48;;;;;;;11.06;80.94;99714.97;5013825;28;20831;-58
2021/10/24 06:57:59;;;;;;;15.18;9.40;;;;;;;11.07;80.94;99716.59;5020171;28;20139;-58
2021/10/24 07:00:26;;;;;;;15.55;9.85;;;;;;;11.03;81.07;99710.00;5019672;28;20569;-58
2021/10/24 07:02:52;;;;;;;16.42;9.65;;;;;;;11.11;81.39;99712.00;5020971;28;20110;-58
2021/10/24 07:05:18;;;;;;;13.50;8.88;;;;;;;11.06;80.46;99698.50;5018713;28;20068;-58
2021/10/24 07:07:44;;;;;;;14.27;9.70;;;;;;;11.05;81.36;99715.09;5014004;28;20041;-57
2021/10/24 07:10:11;;;;;;;12.77;8.68;;;;;;;10.81;80.02;99674.44;5025411;28;20044;-58
2021/10/24 07:12:37;;;;;;;16.33;9.90;;;;;;;11.13;81.10;99725.72;5018253;28;20029;-57
2021/10/24 07:15:04;;;;;;;14.88;9.45;;;;;;;11.10;80.11;99725.97;5019885;28;20033;-58
2021/10/24 07:17:29;;;;;;;14.35;9.57;;;;;;;11.10;80.90;99733.78;5016390;28;20498;-57
2021/10/24 07:19:55;;;;;;;14.45;8.88;;;;;;;11.10;81.09;99732.00;5020537;28;20069;-58
2021/10/24 07:22:20;;;;;;;13.30;9.05;;;;;;;11.12;81.00;99735.31;5010507;28;20040;-57
2021/10/24 07:24:46;;;;;;;13.98;8.88;;;;;;;11.16;80.47;99731.50;5008251;28;20484;-57
2021/10/24 07:27:11;;;;;;;12.25;8.60;;;;;;;10.82;80.49;99694.28;5031224;28;20075;-58
2021/10/24 07:29:37;;;;;;;15.95;8.93;;;;;;;11.15;80.79;99740.28;4997119;28;20044;-58
2021/10/24 07:32:02;;;;;;;14.52;9.07;;;;;;;11.08;80.00;99733.03;5022393;28;20112;-58
2021/10/24 07:34:28;;;;;;;12.40;8.55;;;;;;;11.14;80.13;99748.19;5013755;28;20030;-57
2021/10/24 07:36:53;;;;;;;19.52;12.05;;;;;;;11.08;80.57;99751.25;5017305;28;20033;-58
2021/10/24 07:39:19;;;;;;;15.93;9.90;;;;;;;11.12;81.17;99756.13;5010646;28;20030;-57
2021/10/24 07:41:45;;;;;;;14.02;9.75;;;;;;;11.13;81.10;99760.41;5010644;28;20034;-58
2021/10/24 07:47:33;;;;;;;11.75;7.82;;;;;;;10.98;81.13;99737.34;5007701;28;20055;-58
2021/10/24 07:50:02;;;;;;;13.20;8.77;;;;;;;11.10;81.29;99762.41;5014914;28;20559;-58
2021/10/24 07:52:28;;;;;;;14.05;8.65;;;;;;;10.88;81.52;99726.78;5018647;28;20030;-57
2021/10/24 07:54:53;;;;;;;12.57;8.55;;;;;;;11.16;81.50;99761.91;4936016;28;20557;-58
2021/10/24 07:57:20;;;;;;;13.32;9.25;;;;;;;10.83;81.40;99724.56;5029045;28;20021;-58
2021/10/24 07:59:46;;;;;;;16.52;11.00;;;;;;;11.14;81.66;99776.84;5018658;28;20030;-58
2021/10/24 08:02:19;;;;;;;17.83;11.90;;;;;;;10.82;81.46;99724.69;5011120;28;20472;-58
2021/10/24 08:04:45;;;;;;;16.27;9.15;;;;;;;11.12;81.89;99776.94;5008181;28;20030;-58
2021/10/24 08:10:32;;;;;;;12.82;8.38;;;;;;;11.16;81.92;99780.97;4991912;28;20788;-58
2021/10/24 08:12:57;;;;;;;15.57;8.70;;;;;;;10.82;81.36;99729.88;5023873;28;20033;-58
2021/10/24 08:15:23;;;;;;;12.75;8.27;;;;;;;11.09;81.51;99779.78;5023312;28;20065;-58
2021/10/24 08:17:48;;;;;;;13.02;8.80;;;;;;;11.17;81.17;99784.41;5020654;28;20032;-59
2021/10/24 08:20:15;;;;;;;12.60;8.38;;;;;;;11.14;81.54;99784.66;5016197;28;20034;-58
2021/10/24 08:22:40;;;;;;;15.18;9.05;;;;;;;11.19;81.04;99786.88;5017495;28;20025;-58
2021/10/24 08:25:06;;;;;;;13.45;9.30;;;;;;;11.24;81.22;99788.16;5024953;28;20485;-59
2021/10/24 08:27:32;;;;;;;14.20;9.50;;;;;;;11.26;80.81;99782.84;5024883;28;20109;-59
2021/10/24 08:29:59;;;;;;;16.02;9.35;;;;;;;11.06;80.66;99733.19;5033196;28;20151;-58
2021/10/24 08:32:25;;;;;;;12.60;8.65;;;;;;;11.39;80.56;99780.09;5030339;28;20025;-58
2021/10/24 08:34:51;;;;;;;13.10;8.30;;;;;;;11.49;79.43;99774.03;5024675;28;20033;-58
2021/10/24 08:37:19;;;;;;;12.35;9.05;;;;;;;11.63;79.34;99779.94;5030514;28;20029;-58
2021/10/24 08:39:48;;;;;;;14.77;9.38;;;;;;;11.58;78.76;99769.06;5012052;28;20041;-58
2021/10/24 08:42:14;;;;;;;12.23;9.07;;;;;;;11.73;78.63;99779.06;5021655;28;20042;-59
2021/10/24 08:44:40;;;;;;;13.07;8.68;;;;;;;11.77;78.39;99781.44;5017555;28;20267;-58
2021/10/24 08:47:05;;;;;;;12.73;9.02;;;;;;;11.50;78.17;99741.03;5025479;28;20533;-59
2021/10/24 08:49:31;;;;;;;13.13;7.90;;;;;;;11.53;78.24;99753.78;5016231;28;20102;-58
2021/10/24 08:51:56;;;;;;;13.23;8.48;;;;;;;11.87;77.99;99791.00;5009409;28;20038;-58
2021/10/24 08:54:25;;;;;;;14.75;8.93;;;;;;;11.97;78.45;99793.69;5019149;28;20041;-58
2021/10/24 08:56:51;;;;;;;10.63;7.47;;;;;;;11.85;78.32;99761.63;5028493;28;20067;-57
2021/10/24 08:59:16;;;;;;;12.70;8.23;;;;;;;12.19;77.84;99794.56;5021586;28;20096;-58
2021/10/24 09:01:57;;;;;;;11.20;8.00;;;;;;;12.18;77.58;99791.13;5019513;28;20045;-58
2021/10/24 09:04:22;;;;;;;13.60;8.40;;;;;;;12.20;76.92;99780.56;5026185;28;20033;-57
2021/10/24 09:06:56;;;;;;;12.90;8.68;;;;;;;12.23;77.10;99796.81;5019317;28;20031;-58
2021/10/24 09:09:22;;;;;;;11.02;8.40;;;;;;;11.85;76.79;99748.59;5010580;28;20781;-57
2021/10/24 09:12:09;;;;;;;12.07;8.10;;;;;;;12.34;77.21;99795.91;5016206;28;20108;-57
2021/10/24 09:14:48;;;;;;;13.40;8.52;;;;;;;12.43;76.46;99804.72;5020650;28;20022;-58
2021/10/24 09:17:32;;;;;;;12.20;8.48;;;;;;;12.57;76.04;99796.59;5013564;28;20914;-58
2021/10/24 09:20:00;;;;;;;13.25;9.38;;;;;;;12.64;75.93;99794.31;5012914;28;20384;-59
2021/10/24 09:22:29;;;;;;;13.30;8.45;;;;;;;11.82;75.97;99656.81;5019057;28;20033;-58
2021/10/24 09:25:06;;;;;;;11.63;8.23;;;;;;;12.76;75.32;99795.03;5019179;28;20029;-58
2021/10/24 09:27:39;;;;;;;13.18;8.38;;;;;;;12.71;75.21;99781.56;5036474;28;20098;-58
2021/10/24 09:30:12;;;;;;;12.68;8.43;;;;;;;12.66;75.72;99785.38;5019848;28;20391;-59
2021/10/24 09:32:54;;;;;;;13.45;8.82;;;;;;;12.41;75.02;99764.91;5013017;28;20083;-58
2021/10/24 09:35:24;;;;;;;11.73;8.15;;;;;;;12.74;75.69;99791.72;5023014;28;20018;-58
2021/10/24 09:37:50;;;;;;;13.82;9.52;;;;;;;12.60;75.97;99793.72;5016063;28;20076;-58
2021/10/24 09:40:27;;;;;;;14.82;9.40;;;;;;;12.34;76.92;99753.34;5022933;28;20029;-58
2021/10/24 09:43:11;;;;;;;14.70;8.85;;;;;;;12.73;76.41;99793.53;5015867;28;20049;-58
2021/10/24 09:45:38;;;;;;;13.45;9.10;;;;;;;12.75;76.20;99790.78;5014500;28;20530;-58
2021/10/24 09:48:14;;;;;;;13.18;9.13;;;;;;;12.86;74.83;99794.13;5008408;28;20072;-58
2021/10/24 09:50:51;;;;;;;13.82;9.55;;;;;;;12.99;74.86;99796.53;5016516;28;20451;-58
2021/10/24 09:53:26;;;;;;;13.95;9.35;;;;;;;12.98;74.11;99800.09;5018332;28;20029;-59
2021/10/24 09:56:20;;;;;;;16.70;9.80;;;;;;;12.77;74.17;99765.38;5022159;28;20374;-58
2021/10/24 09:58:48;;;;;;;13.45;9.77;;;;;;;13.09;73.61;99796.56;5013506;28;20609;-59
2021/10/24 10:01:18;;;;;;;13.93;9.82;;;;;;;13.12;72.91;99782.41;5013505;28;20032;-58
2021/10/24 10:03:45;;;;;;;15.10;9.82;;;;;;;13.24;72.74;99789.19;5026213;28;20468;-59
2021/10/24 10:06:10;;;;;;;15.40;10.13;;;;;;;13.26;72.04;99782.88;5022169;28;20028;-59
2021/10/24 10:08:43;;;;;;;17.35;10.80;;;;;;;13.41;71.86;99790.38;5023137;28;20033;-60
2021/10/24 10:11:27;;;;;;;15.10;9.88;;;;;;;13.40;71.96;99786.13;5022165;28;20028;-59
2021/10/24 10:14:02;;;;;;;14.30;9.77;;;;;;;13.42;71.59;99781.59;5017570;28;20025;-59
2021/10/24 10:16:52;;;;;;;14.65;10.45;;;;;;;13.42;70.78;99789.41;5020069;28;20062;-59
2021/10/24 10:19:27;;;;;;;13.43;9.38;;;;;;;13.53;70.74;99780.66;5014984;28;20112;-59
2021/10/24 10:21:53;;;;;;;13.88;9.27;;;;;;;13.42;70.10;99739.78;5024237;28;20059;-59
2021/10/24 10:24:34;;;;;;;13.75;9.43;;;;;;;13.64;69.40;99775.28;5013620;28;20029;-59
2021/10/24 10:26:59;;;;;;;14.55;9.07;;;;;;;13.64;67.52;99780.50;5009916;28;20109;-59
2021/10/24 10:29:54;;;;;;;12.63;8.48;;;;;;;13.67;67.62;99771.56;5014361;28;20129;-58
2021/10/24 10:35:52;;;;;;;11.35;7.78;;;;;;;13.52;68.05;99768.53;5027326;28;20620;-59
2021/10/24 10:38:33;;;;;;;15.38;8.60;;;;;;;13.59;66.40;99767.03;5018796;28;20029;-58
2021/10/24 10:40:59;;;;;;;11.15;7.80;;;;;;;13.67;67.23;99767.16;5018259;28;20033;-59
2021/10/24 10:43:24;;;;;;;12.05;8.25;;;;;;;13.59;66.91;99760.00;5025058;28;20076;-59
2021/10/24 10:46:01;;;;;;;12.27;7.30;;;;;;;13.60;67.30;99753.81;5023156;28;20036;-59
2021/10/24 10:48:34;;;;;;;11.75;7.60;;;;;;;13.58;67.03;99758.38;5026496;28;20492;-59
2021/10/24 10:51:23;;;;;;;10.68;7.20;;;;;;;13.74;65.44;99760.44;5027632;28;20413;-58
2021/10/24 10:53:51;;;;;;;11.07;7.37;;;;;;;13.80;65.66;99769.53;5020289;28;20029;-58
2021/10/24 10:56:22;;;;;;;10.55;7.03;;;;;;;13.89;64.89;99765.25;5034890;28;20297;-59
2021/10/24 10:58:53;;;;;;;11.05;7.20;;;;;;;13.93;64.84;99756.19;5019785;28;20036;-58
2021/10/24 11:01:28;;;;;;;11.48;7.72;;;;;;;13.63;64.78;99721.34;5017234;28;20017;-59
2021/10/24 11:04:07;;;;;;;10.60;7.28;;;;;;;13.71;64.14;99720.66;5025995;28;20039;-59
2021/10/24 11:06:38;;;;;;;12.32;7.47;;;;;;;13.72;63.58;99714.50;5023328;28;20047;-59
2021/10/24 11:09:12;;;;;;;12.25;7.47;;;;;;;14.10;62.44;99741.56;5027111;28;20790;-58
2021/10/24 11:14:11;;;;;;;9.93;6.93;;;;;;;14.15;63.22;99726.28;5014347;28;20123;-59
2021/10/24 11:16:43;;;;;;;12.63;8.40;;;;;;;14.12;62.75;99731.78;5020114;28;20032;-58
2021/10/24 11:21:57;;;;;;;11.20;6.55;;;;;;;14.25;63.16;99718.41;5017664;28;20128;-58
2021/10/24 11:24:38;;;;;;;10.50;7.32;;;;;;;14.33;62.53;99714.13;5012268;28;20033;-59
2021/10/24 11:27:06;;;;;;;12.05;6.72;;;;;;;14.37;61.61;99715.50;5011025;28;20033;-59
2021/10/24 11:29:35;;;;;;;10.68;7.40;;;;;;;14.33;62.52;99710.66;5017556;28;20030;-59
2021/10/24 11:32:33;;;;;;;12.68;8.13;;;;;;;14.32;62.50;99709.03;5013430;28;20120;-58
2021/10/24 11:35:00;;;;;;;11.63;7.50;;;;;;;14.28;63.17;99698.03;5010014;28;20353;-59
2021/10/24 11:37:40;;;;;;;11.93;7.85;;;;;;;14.33;62.72;99698.44;5023796;28;20059;-58
2021/10/24 11:40:36;;;;;;;13.88;8.18;;;;;;;14.45;61.93;99693.03;5014926;28;20031;-58
2021/10/24 11:43:02;;;;;;;11.75;7.95;;;;;;;14.13;61.09;99647.16;5008436;28;20448;-59
2021/10/24 11:45:33;;;;;;;12.20;8.30;;;;;;;14.28;62.03;99679.72;5014711;28;20033;-58
2021/10/24 11:48:18;;;;;;;12.95;8.43;;;;;;;14.24;61.64;99680.97;5002993;28;20029;-59